Denver, Colorado
Traffic Map
Current Weather Conditions
Denver, Colorado
Few Clouds
Few Clouds
80°
Feels Like: 80°
Wind Chill: 80° Ceiling: Unl
Heat Index: 80° Visibility: 10mi
Dew Point: 52° Wind: 7mph
Humidity: 38% Direction: 90° (E)
Pressure: 30.37in Gusts: 0mph
Raw Report DataKBKF 221758Z 09006KT 10SM FEW110 FEW220 27/11 A3037 RMK AO2A SLP205 T02680112 10271 20174 50007
Traffic Incident Summary
Active as of:
Severity:
Category:
InformationThere was an issue retrieving the traffic information for this location. Please try a different location or try again shortly.
Advertisements
Track Severe Weather on mobile